Time;durP1;ratioP1;P1;durP2;ratioP2;P2;SDS_P1;SDS_P2;PMS_P1;PMS_P2;Temp;Humidity;BMP_temperature;BMP_pressure;BME280_temperature;BME280_humidity;BME280_pressure;Samples;Min_cycle;Max_cycle;Signal;HPM_P1;HPM_P2
2023/09/03 00:01:44;;;;;;;1.70;1.50;;;20.60;69.50;;;;;;5056222;28;20037;-79
2023/09/03 00:04:10;;;;;;;2.58;1.92;;;20.60;69.50;;;;;;5038898;28;20398;-78
2023/09/03 00:06:36;;;;;;;2.65;2.10;;;20.60;69.50;;;;;;5055530;28;20043;-79
2023/09/03 00:09:06;;;;;;;2.20;1.70;;;20.60;69.60;;;;;;5056699;28;20561;-79
2023/09/03 00:11:32;;;;;;;2.95;2.00;;;20.50;69.60;;;;;;5038819;28;20063;-78
2023/09/03 00:13:58;;;;;;;3.28;1.95;;;20.50;69.60;;;;;;5055352;28;20401;-78
2023/09/03 00:16:24;;;;;;;3.15;2.28;;;20.50;69.60;;;;;;5038717;28;20029;-79
2023/09/03 00:18:51;;;;;;;3.10;2.00;;;20.50;69.60;;;;;;5055608;28;20547;-79
2023/09/03 00:21:17;;;;;;;1.83;1.67;;;20.50;69.60;;;;;;5055573;28;20029;-78
2023/09/03 00:23:43;;;;;;;2.92;2.15;;;20.50;69.60;;;;;;5055907;28;20151;-78
2023/09/03 00:26:21;;;;;;;2.38;1.80;;;20.50;69.70;;;;;;5056099;28;20491;-79
2023/09/03 00:28:51;;;;;;;2.70;1.95;;;20.50;69.70;;;;;;5055419;28;20436;-80
2023/09/03 00:31:17;;;;;;;2.63;2.00;;;20.40;69.70;;;;;;5038217;28;20041;-79
2023/09/03 00:33:43;;;;;;;2.15;1.83;;;20.40;69.70;;;;;;5038177;28;20033;-78
2023/09/03 00:36:09;;;;;;;2.40;1.80;;;20.40;69.70;;;;;;5038669;28;20037;-79
2023/09/03 00:38:35;;;;;;;2.58;2.00;;;20.30;69.70;;;;;;5038476;28;20033;-79
2023/09/03 00:41:04;;;;;;;1.83;1.65;;;20.30;69.70;;;;;;5054866;28;20033;-79
2023/09/03 00:43:31;;;;;;;2.13;1.90;;;20.30;69.70;;;;;;5038130;28;20040;-79
2023/09/03 00:46:00;;;;;;;2.30;1.83;;;20.30;69.80;;;;;;5054433;28;20073;-79
2023/09/03 00:48:28;;;;;;;2.70;2.17;;;20.20;69.80;;;;;;5038057;28;20479;-79
2023/09/03 00:50:56;;;;;;;3.00;2.03;;;20.20;69.80;;;;;;5054384;28;20033;-79
2023/09/03 00:53:24;;;;;;;2.47;2.10;;;20.20;69.80;;;;;;5038677;28;20037;-79
2023/09/03 00:55:50;;;;;;;2.65;2.08;;;20.20;69.80;;;;;;5055566;28;20033;-79
2023/09/03 00:58:16;;;;;;;3.45;2.17;;;20.10;69.80;;;;;;5055824;28;20025;-79
2023/09/03 01:00:42;;;;;;;2.75;1.90;;;20.10;69.80;;;;;;5038117;28;20182;-79
2023/09/03 01:03:07;;;;;;;2.60;2.00;;;20.10;69.90;;;;;;5022152;28;20043;-79
2023/09/03 01:05:33;;;;;;;2.53;2.05;;;20.10;69.90;;;;;;5038595;28;20450;-78
2023/09/03 01:08:00;;;;;;;2.20;1.85;;;20.10;69.90;;;;;;5038080;28;20385;-79
2023/09/03 01:10:40;;;;;;;2.58;2.00;;;20.00;69.90;;;;;;5038279;28;20033;-79
2023/09/03 01:13:15;;;;;;;2.50;2.08;;;20.00;70.00;;;;;;5054445;28;20033;-78
2023/09/03 01:15:48;;;;;;;2.40;1.88;;;20.00;70.00;;;;;;5037439;28;20025;-79
2023/09/03 01:18:18;;;;;;;2.28;1.90;;;20.00;69.90;;;;;;5037867;28;20068;-78
2023/09/03 01:21:26;;;;;;;2.35;1.90;;;20.00;70.00;;;;;;5054431;28;20021;-78
2023/09/03 01:24:06;;;;;;;2.40;1.88;;;19.90;70.00;;;;;;5037401;28;20029;-78
2023/09/03 01:26:44;;;;;;;1.95;1.70;;;19.90;69.90;;;;;;5037715;28;20025;-79
2023/09/03 01:29:11;;;;;;;3.47;2.15;;;19.90;70.00;;;;;;5054347;28;20059;-79
2023/09/03 01:31:38;;;;;;;2.45;2.00;;;19.90;70.00;;;;;;5053914;28;20053;-79
2023/09/03 01:34:05;;;;;;;2.50;2.10;;;19.80;70.00;;;;;;5055170;28;20033;-78
2023/09/03 01:36:32;;;;;;;2.53;2.00;;;19.80;70.10;;;;;;5055150;28;20032;-79
2023/09/03 01:39:11;;;;;;;2.95;2.10;;;19.80;70.10;;;;;;5054090;28;20082;-79
2023/09/03 01:41:38;;;;;;;2.83;2.00;;;19.80;70.10;;;;;;5053698;28;20037;-79
2023/09/03 01:44:09;;;;;;;2.30;1.80;;;19.80;70.10;;;;;;5021461;28;20080;-79
2023/09/03 01:46:49;;;;;;;2.75;2.00;;;19.70;70.10;;;;;;5055009;28;20041;-79
2023/09/03 01:49:14;;;;;;;2.15;1.80;;;19.70;70.20;;;;;;5053666;28;20021;-79
2023/09/03 01:51:47;;;;;;;2.83;2.15;;;19.70;70.10;;;;;;5053644;28;20074;-79
2023/09/03 01:54:19;;;;;;;2.13;1.80;;;19.70;70.20;;;;;;5054313;28;20036;-79
2023/09/03 01:57:29;;;;;;;2.17;1.70;;;19.60;70.20;;;;;;5036750;28;20104;-78
2023/09/03 01:59:58;;;;;;;2.67;1.80;;;19.70;70.30;;;;;;5044293;28;20065;-78
2023/09/03 02:02:25;;;;;;;2.72;1.90;;;19.60;70.20;;;;;;5053340;28;20045;-79
2023/09/03 02:04:51;;;;;;;3.05;1.98;;;19.60;70.20;;;;;;5053443;28;20049;-79
2023/09/03 02:07:17;;;;;;;2.63;1.98;;;19.60;70.30;;;;;;5020207;28;20079;-79
2023/09/03 02:09:43;;;;;;;2.70;2.05;;;19.50;70.20;;;;;;5036568;28;20029;-78
2023/09/03 02:12:09;;;;;;;2.22;1.98;;;19.50;70.30;;;;;;5036786;28;20028;-78
2023/09/03 02:14:35;;;;;;;2.47;1.88;;;19.50;70.30;;;;;;5053708;28;20029;-79
2023/09/03 02:17:01;;;;;;;2.90;2.22;;;19.50;70.40;;;;;;5037272;28;20033;-79
2023/09/03 02:19:26;;;;;;;2.80;2.20;;;19.50;70.40;;;;;;5036499;28;20116;-79
2023/09/03 02:21:52;;;;;;;2.33;1.95;;;19.40;70.30;;;;;;5054194;28;20029;-79
2023/09/03 02:24:18;;;;;;;2.33;1.85;;;19.40;70.30;;;;;;5036462;28;20131;-79
2023/09/03 02:26:46;;;;;;;2.47;2.15;;;19.40;70.40;;;;;;5054394;28;20032;-79
2023/09/03 02:29:12;;;;;;;2.08;1.85;;;19.40;70.40;;;;;;5052980;28;20044;-79
2023/09/03 02:31:38;;;;;;;2.47;2.10;;;19.30;70.30;;;;;;5036078;28;20465;-79
2023/09/03 02:34:06;;;;;;;3.10;2.10;;;19.30;70.40;;;;;;5052588;28;20041;-78
2023/09/03 02:36:33;;;;;;;3.08;2.42;;;19.30;70.40;;;;;;5035799;28;20393;-78
2023/09/03 02:39:04;;;;;;;1.98;1.73;;;19.30;70.50;;;;;;5052705;28;20032;-79
2023/09/03 02:41:30;;;;;;;2.03;1.80;;;19.30;70.50;;;;;;5052652;28;20078;-79
2023/09/03 02:43:57;;;;;;;2.45;2.10;;;19.30;70.50;;;;;;5052718;28;20065;-79
2023/09/03 02:46:23;;;;;;;2.10;1.90;;;19.30;70.50;;;;;;5053877;28;20033;-79
2023/09/03 02:48:49;;;;;;;2.70;1.98;;;19.30;70.60;;;;;;5053843;28;20111;-79
2023/09/03 02:51:15;;;;;;;2.45;1.98;;;19.20;70.50;;;;;;5053284;28;20426;-79
2023/09/03 02:53:43;;;;;;;2.83;1.98;;;19.20;70.60;;;;;;5035866;28;20124;-79
2023/09/03 02:56:10;;;;;;;2.17;1.92;;;19.20;70.60;;;;;;5052594;28;20025;-79
2023/09/03 02:58:38;;;;;;;2.97;1.88;;;19.10;70.60;;;;;;5036112;28;20032;-79
2023/09/03 03:01:08;;;;;;;1.92;1.65;;;19.10;70.60;;;;;;5036614;28;20021;-78
2023/09/03 03:03:34;;;;;;;2.38;1.90;;;19.10;70.70;;;;;;5036446;28;20482;-79
2023/09/03 03:06:00;;;;;;;2.50;2.00;;;19.10;70.60;;;;;;5053638;28;20044;-79
2023/09/03 03:08:26;;;;;;;3.42;2.10;;;19.10;70.70;;;;;;5035697;28;20056;-79
2023/09/03 03:10:51;;;;;;;2.60;2.05;;;19.00;70.70;;;;;;5052842;28;20433;-78
2023/09/03 03:13:18;;;;;;;2.45;1.98;;;19.00;70.70;;;;;;5035779;28;20500;-79
2023/09/03 03:15:46;;;;;;;2.13;1.70;;;19.00;70.80;;;;;;5036445;28;20033;-79
2023/09/03 03:18:12;;;;;;;2.55;2.08;;;19.00;70.80;;;;;;5035839;28;20080;-78
2023/09/03 03:20:38;;;;;;;2.67;2.08;;;19.00;70.80;;;;;;5019605;28;20044;-79
2023/09/03 03:23:04;;;;;;;2.63;2.17;;;19.00;70.90;;;;;;5035520;28;20033;-78
2023/09/03 03:25:30;;;;;;;2.75;2.10;;;18.90;70.80;;;;;;5019303;28;20497;-78
2023/09/03 03:27:57;;;;;;;2.35;1.83;;;18.90;70.80;;;;;;5035697;28;20175;-79
2023/09/03 03:30:23;;;;;;;2.30;1.98;;;18.90;70.90;;;;;;5019138;28;20477;-79
2023/09/03 03:32:48;;;;;;;2.90;2.08;;;18.90;70.90;;;;;;5035130;28;20073;-79
2023/09/03 03:35:15;;;;;;;2.08;1.77;;;18.90;71.00;;;;;;5051756;28;20029;-79
2023/09/03 03:37:41;;;;;;;2.42;1.90;;;18.90;71.00;;;;;;5035495;28;20075;-78
2023/09/03 03:40:07;;;;;;;2.25;1.90;;;18.90;71.00;;;;;;5019890;28;20056;-79
2023/09/03 03:42:33;;;;;;;2.20;1.92;;;18.80;70.90;;;;;;5036122;28;20037;-79
2023/09/03 03:44:58;;;;;;;2.58;1.90;;;18.80;70.90;;;;;;5051989;28;20144;-79
2023/09/03 03:47:24;;;;;;;2.60;2.03;;;18.80;70.90;;;;;;5035106;28;20025;-79
2023/09/03 03:49:51;;;;;;;3.63;2.10;;;18.80;71.00;;;;;;5035402;28;20035;-79
2023/09/03 03:52:17;;;;;;;2.53;2.10;;;18.70;70.90;;;;;;5035466;28;20120;-78
2023/09/03 03:54:43;;;;;;;3.03;2.22;;;18.70;71.00;;;;;;5035306;28;20041;-79
2023/09/03 03:57:09;;;;;;;3.10;2.35;;;18.70;71.00;;;;;;5035441;28;20087;-78
2023/09/03 03:59:36;;;;;;;2.80;2.10;;;18.70;71.00;;;;;;5035236;28;20029;-79
2023/09/03 04:02:02;;;;;;;2.22;1.90;;;18.70;71.00;;;;;;5035388;28;20040;-79
2023/09/03 04:04:27;;;;;;;2.80;2.15;;;18.70;71.00;;;;;;5018782;28;20397;-78
2023/09/03 04:06:53;;;;;;;2.30;2.03;;;18.70;71.00;;;;;;5051638;28;20047;-79
2023/09/03 04:09:19;;;;;;;2.95;2.13;;;18.60;71.00;;;;;;5036304;28;20033;-79
2023/09/03 04:11:44;;;;;;;3.25;2.42;;;18.60;71.00;;;;;;5051688;28;20396;-78
2023/09/03 04:14:10;;;;;;;2.53;2.00;;;18.60;71.00;;;;;;5018973;28;20043;-78
2023/09/03 04:16:36;;;;;;;3.35;2.25;;;18.60;71.10;;;;;;5051760;28;20078;-79
2023/09/03 04:19:02;;;;;;;2.83;2.15;;;18.60;71.10;;;;;;5018844;28;20156;-79
2023/09/03 04:21:28;;;;;;;3.05;2.22;;;18.50;71.10;;;;;;5038103;28;20037;-79
2023/09/03 04:23:54;;;;;;;2.92;2.42;;;18.50;71.00;;;;;;5038696;28;20132;-78
2023/09/03 04:26:20;;;;;;;3.00;2.10;;;18.50;71.10;;;;;;5038724;28;20086;-79
2023/09/03 04:28:54;;;;;;;3.25;2.30;;;18.50;71.10;;;;;;5055494;28;20060;-79
2023/09/03 04:31:20;;;;;;;2.35;2.13;;;18.50;71.10;;;;;;5054885;28;20037;-79
2023/09/03 04:33:46;;;;;;;2.30;2.10;;;18.50;71.10;;;;;;5038010;28;20055;-79
2023/09/03 04:36:12;;;;;;;2.65;2.10;;;18.40;71.10;;;;;;5038675;28;20450;-79
2023/09/03 04:38:38;;;;;;;2.28;2.00;;;18.40;71.10;;;;;;5055175;28;20087;-79
2023/09/03 04:41:05;;;;;;;2.75;2.15;;;18.40;71.10;;;;;;5054905;28;20029;-79
2023/09/03 04:43:41;;;;;;;2.95;2.17;;;18.40;71.20;;;;;;5039623;28;20041;-78
2023/09/03 04:46:07;;;;;;;3.50;2.00;;;18.40;71.20;;;;;;5055655;28;20071;-79
2023/09/03 04:48:33;;;;;;;2.97;2.20;;;18.30;71.10;;;;;;5038976;28;20462;-78
2023/09/03 04:51:03;;;;;;;2.63;2.03;;;18.30;71.20;;;;;;5038213;28;20041;-78
2023/09/03 04:53:34;;;;;;;2.40;2.08;;;18.30;71.30;;;;;;5054609;28;20039;-78
2023/09/03 04:56:02;;;;;;;3.53;2.15;;;18.30;71.20;;;;;;5054721;28;20033;-79
2023/09/03 04:58:29;;;;;;;2.42;1.92;;;18.30;71.30;;;;;;5038216;28;20119;-78
2023/09/03 05:00:55;;;;;;;2.50;2.05;;;18.30;71.20;;;;;;5054533;28;20129;-79
2023/09/03 05:03:20;;;;;;;2.72;2.20;;;18.20;71.20;;;;;;5038062;28;20040;-79
2023/09/03 05:05:46;;;;;;;2.47;2.00;;;18.20;71.20;;;;;;5021366;28;20033;-79
2023/09/03 05:08:13;;;;;;;2.58;2.05;;;18.20;71.20;;;;;;5054376;28;20029;-79
2023/09/03 05:10:41;;;;;;;2.90;2.10;;;18.20;71.30;;;;;;5022349;28;20039;-78
2023/09/03 05:13:09;;;;;;;2.67;2.33;;;18.20;71.30;;;;;;5038235;28;20128;-79
2023/09/03 05:15:36;;;;;;;2.75;2.20;;;18.20;71.30;;;;;;5038764;28;20517;-79
2023/09/03 05:18:03;;;;;;;2.30;2.10;;;18.20;71.30;;;;;;5038788;28;20064;-78
2023/09/03 05:20:29;;;;;;;2.60;2.03;;;18.20;71.40;;;;;;5021348;28;20123;-79
2023/09/03 05:22:55;;;;;;;3.13;2.22;;;18.10;71.40;;;;;;5021273;28;20159;-79
2023/09/03 05:25:21;;;;;;;2.83;2.22;;;18.10;71.40;;;;;;5037867;28;20064;-79
2023/09/03 05:27:47;;;;;;;2.72;2.00;;;18.10;71.40;;;;;;5053755;28;20044;-79
2023/09/03 05:30:13;;;;;;;2.20;1.90;;;18.10;71.40;;;;;;5020933;28;20033;-78
2023/09/03 05:32:38;;;;;;;3.03;2.35;;;18.10;71.50;;;;;;5035826;28;20055;-78
2023/09/03 05:35:05;;;;;;;2.80;2.05;;;18.10;71.50;;;;;;5038172;28;20033;-78
2023/09/03 05:37:31;;;;;;;2.97;2.20;;;18.00;71.40;;;;;;5038097;28;20029;-78
2023/09/03 05:39:56;;;;;;;3.35;2.38;;;18.10;71.50;;;;;;5020715;28;20040;-78
2023/09/03 05:42:22;;;;;;;2.78;2.22;;;18.00;71.50;;;;;;5054006;28;20043;-78
2023/09/03 05:44:48;;;;;;;2.25;2.05;;;18.00;71.50;;;;;;5037415;28;20036;-78
2023/09/03 05:47:18;;;;;;;3.28;2.50;;;18.00;71.50;;;;;;5037410;28;20132;-79
2023/09/03 05:49:45;;;;;;;2.58;2.03;;;18.00;71.50;;;;;;5021144;28;20071;-78
2023/09/03 05:52:11;;;;;;;2.55;2.17;;;18.00;71.60;;;;;;5053327;28;20129;-78
2023/09/03 05:54:38;;;;;;;3.30;2.20;;;18.00;71.60;;;;;;5037208;28;20553;-78
2023/09/03 05:57:04;;;;;;;3.15;2.13;;;18.00;71.60;;;;;;5037063;28;20036;-78
2023/09/03 05:59:30;;;;;;;3.05;2.30;;;18.00;71.70;;;;;;5053707;28;20040;-78
2023/09/03 06:01:57;;;;;;;3.03;2.03;;;18.00;71.70;;;;;;5054107;28;20041;-78
2023/09/03 06:04:23;;;;;;;3.60;2.70;;;18.00;71.70;;;;;;5037129;28;20044;-78
2023/09/03 06:06:50;;;;;;;2.70;2.00;;;18.00;71.70;;;;;;5036914;28;20424;-78
2023/09/03 06:09:18;;;;;;;2.85;2.20;;;18.00;71.70;;;;;;5037450;28;20058;-79
2023/09/03 06:11:46;;;;;;;2.45;2.20;;;18.00;71.80;;;;;;5020704;28;20032;-78
2023/09/03 06:14:12;;;;;;;3.30;2.58;;;17.90;71.70;;;;;;5036954;28;20029;-78
2023/09/03 06:16:38;;;;;;;3.05;2.40;;;17.90;71.80;;;;;;5020129;28;20025;-78
2023/09/03 06:19:04;;;;;;;3.42;2.45;;;17.90;71.80;;;;;;5052722;28;20037;-78
2023/09/03 06:21:30;;;;;;;3.17;2.38;;;18.00;71.90;;;;;;5052987;28;20035;-79
2023/09/03 06:23:56;;;;;;;3.78;2.42;;;18.00;71.90;;;;;;5020038;28;20083;-78
2023/09/03 06:26:22;;;;;;;3.05;2.40;;;18.00;71.90;;;;;;5053028;28;20041;-78
2023/09/03 06:28:48;;;;;;;3.15;2.60;;;18.00;71.90;;;;;;5019898;28;20426;-79
2023/09/03 06:31:13;;;;;;;3.13;2.40;;;18.00;71.90;;;;;;5052871;28;20029;-78
2023/09/03 06:33:40;;;;;;;3.08;2.63;;;18.00;71.90;;;;;;5036903;28;20136;-79
2023/09/03 06:36:05;;;;;;;4.00;2.85;;;17.90;71.90;;;;;;5054118;28;20033;-78
2023/09/03 06:38:31;;;;;;;3.85;2.67;;;17.90;71.90;;;;;;5036235;28;20033;-78
2023/09/03 06:40:57;;;;;;;3.47;2.70;;;17.90;71.90;;;;;;5053688;28;20025;-78
2023/09/03 06:43:23;;;;;;;2.97;2.50;;;18.00;72.00;;;;;;5052574;28;20040;-78
2023/09/03 06:45:49;;;;;;;3.65;2.70;;;18.00;72.00;;;;;;5052364;28;20063;-78
2023/09/03 06:48:14;;;;;;;4.75;2.72;;;18.00;72.00;;;;;;5036351;28;20025;-79
2023/09/03 06:50:41;;;;;;;4.30;3.00;;;18.00;72.00;;;;;;5036248;28;20428;-79
2023/09/03 06:53:07;;;;;;;4.57;3.00;;;18.00;72.10;;;;;;5052665;28;20067;-78
2023/09/03 06:55:33;;;;;;;4.05;2.97;;;18.00;72.10;;;;;;5036139;28;20040;-78
2023/09/03 06:57:59;;;;;;;3.88;3.13;;;18.00;72.10;;;;;;5052679;28;20033;-78
2023/09/03 07:00:25;;;;;;;4.03;2.92;;;18.00;72.10;;;;;;5036659;28;20036;-78
2023/09/03 07:02:51;;;;;;;3.70;2.78;;;18.10;72.20;;;;;;5052080;28;20033;-79
2023/09/03 07:05:16;;;;;;;3.38;2.65;;;18.10;72.10;;;;;;5019346;28;20076;-78
2023/09/03 07:07:42;;;;;;;3.17;2.60;;;18.10;72.10;;;;;;5052545;28;20469;-79
2023/09/03 07:10:08;;;;;;;3.47;2.80;;;18.10;72.10;;;;;;5053257;28;20025;-78
2023/09/03 07:12:34;;;;;;;4.00;2.90;;;18.10;72.10;;;;;;5053293;28;20037;-78
2023/09/03 07:14:59;;;;;;;3.70;2.90;;;18.10;72.00;;;;;;5035477;28;20040;-78
2023/09/03 07:17:25;;;;;;;3.92;2.92;;;18.10;72.10;;;;;;5054140;28;20044;-78
2023/09/03 07:19:57;;;;;;;4.07;3.15;;;18.10;72.10;;;;;;5053180;28;20033;-79
2023/09/03 07:22:24;;;;;;;3.88;3.00;;;18.20;72.10;;;;;;5052286;28;20047;-78
2023/09/03 07:24:53;;;;;;;4.88;3.13;;;18.20;72.10;;;;;;5035631;28;20122;-79
2023/09/03 07:27:19;;;;;;;4.55;3.40;;;18.20;72.10;;;;;;5053708;28;20112;-79
2023/09/03 07:29:45;;;;;;;3.22;2.75;;;18.20;72.10;;;;;;5019152;28;20025;-79
2023/09/03 07:32:11;;;;;;;3.97;3.00;;;18.30;72.10;;;;;;5053120;28;20056;-79
2023/09/03 07:34:37;;;;;;;4.00;3.00;;;18.30;72.10;;;;;;5035693;28;20033;-79
2023/09/03 07:37:02;;;;;;;3.63;2.67;;;18.30;72.70;;;;;;5035493;28;20048;-79
2023/09/03 07:39:28;;;;;;;3.83;2.85;;;18.40;72.10;;;;;;5035772;28;20358;-78
2023/09/03 07:41:56;;;;;;;4.18;2.90;;;18.40;72.10;;;;;;5051784;28;20032;-79
2023/09/03 07:44:23;;;;;;;3.88;3.08;;;18.40;72.00;;;;;;5053403;28;20053;-79
2023/09/03 07:46:49;;;;;;;4.50;3.33;;;18.40;72.10;;;;;;5051739;28;20053;-79
2023/09/03 07:49:15;;;;;;;4.50;3.25;;;18.40;72.00;;;;;;5053439;28;20036;-78
2023/09/03 07:51:41;;;;;;;4.35;2.92;;;18.40;72.00;;;;;;5035431;28;20090;-78
2023/09/03 07:54:07;;;;;;;3.83;3.17;;;18.50;72.00;;;;;;5018562;28;20119;-79
2023/09/03 07:56:32;;;;;;;3.97;3.08;;;18.50;72.10;;;;;;5022614;28;20056;-79
2023/09/03 07:58:59;;;;;;;4.15;3.00;;;18.50;72.00;;;;;;5056160;28;20381;-79
2023/09/03 08:01:25;;;;;;;4.60;3.25;;;18.60;72.10;;;;;;5055763;28;20029;-79
2023/09/03 08:03:51;;;;;;;4.05;3.40;;;18.60;72.00;;;;;;5039702;28;20047;-79
2023/09/03 08:06:17;;;;;;;4.90;3.00;;;18.60;72.00;;;;;;5055686;28;20091;-79
2023/09/03 08:08:43;;;;;;;4.43;3.17;;;18.60;71.90;;;;;;5056536;28;20358;-79
2023/09/03 08:11:09;;;;;;;3.95;2.90;;;18.70;72.60;;;;;;5039914;28;20056;-79
2023/09/03 08:13:35;;;;;;;3.95;3.10;;;18.70;71.90;;;;;;5056839;28;20075;-79
2023/09/03 08:16:01;;;;;;;5.05;3.25;;;18.70;71.90;;;;;;5056658;28;20036;-79
2023/09/03 08:18:26;;;;;;;5.03;3.58;;;18.80;71.90;;;;;;5055209;28;20033;-79
2023/09/03 08:20:52;;;;;;;4.30;3.10;;;18.80;71.90;;;;;;5055632;28;20542;-78
2023/09/03 08:23:19;;;;;;;3.92;3.03;;;18.80;71.90;;;;;;5055989;28;20373;-79
2023/09/03 08:25:45;;;;;;;4.05;3.00;;;18.80;71.90;;;;;;5038629;28;20478;-78
2023/09/03 08:28:11;;;;;;;3.85;3.05;;;18.90;71.80;;;;;;5055160;28;20064;-79
2023/09/03 08:30:37;;;;;;;4.32;3.20;;;18.90;71.80;;;;;;5038355;28;20025;-79
2023/09/03 08:33:04;;;;;;;3.70;2.78;;;19.00;71.80;;;;;;5054858;28;20052;-78
2023/09/03 08:35:30;;;;;;;4.18;3.08;;;19.00;71.70;;;;;;5038538;28;20029;-79
2023/09/03 08:37:56;;;;;;;3.90;2.85;;;19.00;71.60;;;;;;5054979;28;20120;-79
2023/09/03 08:40:23;;;;;;;3.83;2.97;;;19.10;71.60;;;;;;5039281;28;20122;-79
2023/09/03 08:42:50;;;;;;;3.85;2.50;;;19.10;71.50;;;;;;5054628;28;20159;-79
2023/09/03 08:45:20;;;;;;;3.35;2.45;;;19.20;71.40;;;;;;5038518;28;20041;-78
2023/09/03 08:47:46;;;;;;;3.97;2.85;;;19.20;71.30;;;;;;5038250;28;20037;-79
2023/09/03 08:50:13;;;;;;;3.85;2.67;;;19.30;71.30;;;;;;5038284;28;20108;-78
2023/09/03 08:52:41;;;;;;;3.75;2.72;;;19.40;71.20;;;;;;5055679;28;20433;-79
2023/09/03 08:55:09;;;;;;;4.18;3.03;;;19.40;71.00;;;;;;5054486;28;20474;-79
2023/09/03 08:57:35;;;;;;;3.67;2.88;;;19.50;70.90;;;;;;5054635;28;20032;-78
2023/09/03 09:00:07;;;;;;;3.35;2.60;;;19.50;70.70;;;;;;5055863;28;20037;-78
2023/09/03 09:02:36;;;;;;;2.92;2.40;;;19.60;70.70;;;;;;5038211;28;20056;-79
2023/09/03 09:05:07;;;;;;;3.40;2.63;;;19.70;70.60;;;;;;5055981;28;20067;-78
2023/09/03 09:07:33;;;;;;;3.05;2.35;;;19.70;70.40;;;;;;5054304;28;20025;-79
2023/09/03 09:10:13;;;;;;;3.55;2.60;;;19.80;70.40;;;;;;5054550;28;20108;-78
2023/09/03 09:12:50;;;;;;;3.58;2.65;;;19.90;70.30;;;;;;5037845;28;20029;-79
2023/09/03 09:15:16;;;;;;;4.00;2.65;;;20.00;70.20;;;;;;5055387;28;20028;-79
2023/09/03 09:17:43;;;;;;;3.30;2.42;;;20.00;70.00;;;;;;5021408;28;20071;-79
2023/09/03 09:20:14;;;;;;;3.05;2.40;;;20.10;70.00;;;;;;5037357;28;20027;-78
2023/09/03 09:22:45;;;;;;;3.15;2.50;;;20.20;70.00;;;;;;5054547;28;20033;-78
2023/09/03 09:25:19;;;;;;;3.25;2.67;;;20.30;69.90;;;;;;5054088;28;20029;-78
2023/09/03 09:27:44;;;;;;;2.97;2.50;;;20.40;69.80;;;;;;5037520;28;20029;-78
2023/09/03 09:30:15;;;;;;;3.33;2.55;;;20.50;69.60;;;;;;5037627;28;20037;-79
2023/09/03 09:32:42;;;;;;;2.60;2.10;;;20.50;69.50;;;;;;5055092;28;20075;-79
2023/09/03 09:35:09;;;;;;;3.03;2.47;;;20.60;69.50;;;;;;5053768;28;20037;-79
2023/09/03 09:37:41;;;;;;;3.60;2.50;;;20.70;69.50;;;;;;5021668;28;20091;-78
2023/09/03 09:40:08;;;;;;;2.90;2.20;;;20.70;69.40;;;;;;5053962;28;20025;-79
2023/09/03 09:42:50;;;;;;;2.92;2.28;;;20.90;69.40;;;;;;5053857;28;20048;-78
2023/09/03 09:45:16;;;;;;;2.92;2.05;;;20.90;69.30;;;;;;5039474;28;20470;-79
2023/09/03 09:47:42;;;;;;;3.10;2.28;;;21.00;69.20;;;;;;5036977;28;20033;-79
2023/09/03 09:50:08;;;;;;;3.53;2.30;;;21.10;69.20;;;;;;5053466;28;20036;-79
2023/09/03 09:52:36;;;;;;;2.72;2.22;;;21.10;69.20;;;;;;5037079;28;20062;-79
2023/09/03 09:55:02;;;;;;;3.20;2.33;;;21.20;69.20;;;;;;5053870;28;20056;-79
2023/09/03 09:57:28;;;;;;;2.65;2.25;;;21.30;69.20;;;;;;5037041;28;20106;-79
2023/09/03 10:00:00;;;;;;;2.53;1.90;;;21.30;69.10;;;;;;5037135;28;20037;-79
2023/09/03 10:02:26;;;;;;;2.58;2.13;;;21.40;69.10;;;;;;5054908;28;20044;-77
2023/09/03 10:04:53;;;;;;;3.20;2.28;;;21.50;69.10;;;;;;5036719;28;20032;-78
2023/09/03 10:07:19;;;;;;;3.17;2.30;;;21.60;69.00;;;;;;5053287;28;20037;-79
2023/09/03 10:09:45;;;;;;;2.28;2.00;;;21.60;68.90;;;;;;5053222;28;20028;-78
2023/09/03 10:12:12;;;;;;;2.17;1.88;;;21.70;69.00;;;;;;5036663;28;20051;-79
2023/09/03 10:14:38;;;;;;;3.22;2.15;;;21.70;68.80;;;;;;5052964;28;20025;-78
2023/09/03 10:17:06;;;;;;;2.78;2.15;;;21.80;68.80;;;;;;5053733;28;20079;-79
2023/09/03 10:19:50;;;;;;;2.30;2.00;;;21.90;68.80;;;;;;5052909;28;20086;-79
2023/09/03 10:22:18;;;;;;;3.03;2.28;;;21.90;68.80;;;;;;5036685;28;20029;-79
2023/09/03 10:24:50;;;;;;;2.08;1.80;;;22.10;68.70;;;;;;5053037;28;20048;-78
2023/09/03 10:27:21;;;;;;;1.92;1.73;;;22.10;68.60;;;;;;5053998;28;20029;-79
2023/09/03 10:29:48;;;;;;;2.50;2.00;;;22.20;68.60;;;;;;5053220;28;20389;-78
2023/09/03 10:32:15;;;;;;;2.50;1.80;;;22.30;68.60;;;;;;5019713;28;20157;-78
2023/09/03 10:34:41;;;;;;;2.08;1.88;;;22.30;68.40;;;;;;5054304;28;20062;-78
2023/09/03 10:37:07;;;;;;;1.88;1.65;;;22.40;68.40;;;;;;5036084;28;20584;-79
2023/09/03 10:39:34;;;;;;;2.58;1.90;;;22.40;68.30;;;;;;5052666;28;20051;-79
2023/09/03 10:42:16;;;;;;;2.83;1.90;;;22.50;68.30;;;;;;5052436;28;20029;-79
2023/09/03 10:44:43;;;;;;;2.67;1.90;;;22.60;68.30;;;;;;5052801;28;20041;-78
2023/09/03 10:47:11;;;;;;;1.38;1.27;;;22.60;68.20;;;;;;5054098;28;20033;-79
2023/09/03 10:49:41;;;;;;;2.85;1.80;;;22.60;68.10;;;;;;5052453;28;20033;-78
2023/09/03 10:52:43;;;;;;;2.42;1.70;;;22.70;68.20;;;;;;5052352;28;20032;-79
2023/09/03 10:55:09;;;;;;;2.15;1.55;;;22.80;68.20;;;;;;5015089;28;20037;-79
2023/09/03 10:57:35;;;;;;;1.58;1.33;;;22.80;68.10;;;;;;5048729;28;20048;-79
2023/09/03 11:00:04;;;;;;;1.65;1.55;;;22.90;68.20;;;;;;5036163;28;20029;-79
2023/09/03 11:02:31;;;;;;;1.50;1.40;;;22.90;68.10;;;;;;5052665;28;20112;-79
2023/09/03 11:05:12;;;;;;;2.03;1.38;;;23.00;68.20;;;;;;5052723;28;20508;-78
2023/09/03 11:07:38;;;;;;;2.00;1.60;;;23.00;68.30;;;;;;5052355;28;20040;-79
2023/09/03 11:10:36;;;;;;;1.65;1.48;;;23.00;68.20;;;;;;5019420;28;20025;-78
2023/09/03 11:13:07;;;;;;;1.92;1.50;;;23.10;68.40;;;;;;5013948;28;20068;-78
2023/09/03 11:15:33;;;;;;;1.50;1.40;;;23.10;68.30;;;;;;5052761;28;20028;-79
2023/09/03 11:17:59;;;;;;;1.95;1.60;;;23.10;68.30;;;;;;5052049;28;20080;-78
2023/09/03 11:20:35;;;;;;;1.92;1.33;;;23.20;68.40;;;;;;5019060;28;20481;-78
2023/09/03 11:23:02;;;;;;;1.35;1.25;;;23.20;68.50;;;;;;5052475;28;20063;-78
2023/09/03 11:25:36;;;;;;;1.52;1.33;;;23.30;69.10;;;;;;5052940;28;20067;-79
2023/09/03 11:28:05;;;;;;;1.80;1.42;;;23.30;68.60;;;;;;5020246;28;20028;-79
2023/09/03 11:30:31;;;;;;;1.40;1.20;;;23.30;68.60;;;;;;5054666;28;20091;-79
2023/09/03 11:32:57;;;;;;;1.30;1.17;;;23.30;68.60;;;;;;5055888;28;20053;-79
2023/09/03 11:35:24;;;;;;;1.50;1.40;;;23.30;68.60;;;;;;5039950;28;20052;-79
2023/09/03 11:37:51;;;;;;;1.60;1.50;;;23.40;68.70;;;;;;5056494;28;20041;-79
2023/09/03 11:40:17;;;;;;;1.58;1.45;;;23.40;68.70;;;;;;5039497;28;20120;-79
2023/09/03 11:42:44;;;;;;;1.80;1.30;;;23.40;68.80;;;;;;5039278;28;20029;-78
2023/09/03 11:45:11;;;;;;;2.10;1.60;;;23.40;68.80;;;;;;5040202;28;20335;-79
2023/09/03 11:47:38;;;;;;;1.40;1.30;;;23.50;68.90;;;;;;5056961;28;20060;-79
2023/09/03 11:50:12;;;;;;;1.50;1.40;;;23.50;68.90;;;;;;5040193;28;20377;-78
2023/09/03 11:52:38;;;;;;;1.10;1.00;;;23.50;69.00;;;;;;5056728;28;20033;-78
2023/09/03 11:55:04;;;;;;;1.95;1.40;;;23.60;69.60;;;;;;5039222;28;20029;-78
2023/09/03 11:57:31;;;;;;;1.58;1.08;;;23.60;69.00;;;;;;5039686;28;20119;-78
2023/09/03 11:59:57;;;;;;;1.30;1.20;;;23.60;69.00;;;;;;5039343;28;20124;-79
2023/09/03 12:02:23;;;;;;;1.27;1.17;;;23.60;69.10;;;;;;5022611;28;20131;-78
2023/09/03 12:04:49;;;;;;;1.40;1.30;;;23.70;69.10;;;;;;5056024;28;20115;-78
2023/09/03 12:07:16;;;;;;;1.38;1.27;;;23.70;69.10;;;;;;5055633;28;20060;-79
2023/09/03 12:09:42;;;;;;;1.48;1.38;;;23.70;69.10;;;;;;5039108;28;20040;-79
2023/09/03 12:12:08;;;;;;;1.33;1.23;;;23.70;69.10;;;;;;5055321;28;20032;-79
2023/09/03 12:14:34;;;;;;;1.52;1.20;;;23.70;69.10;;;;;;5055382;28;20120;-79
2023/09/03 12:17:00;;;;;;;1.50;1.33;;;23.80;69.20;;;;;;5038974;28;20457;-78
2023/09/03 12:19:42;;;;;;;1.20;1.10;;;23.80;69.10;;;;;;5038576;28;20151;-79
2023/09/03 12:22:09;;;;;;;1.38;1.17;;;23.80;69.10;;;;;;5055344;28;20025;-79
2023/09/03 12:24:34;;;;;;;1.40;1.30;;;23.80;68.90;;;;;;5056283;28;20029;-78
2023/09/03 12:27:04;;;;;;;1.60;1.50;;;23.90;68.90;;;;;;5038750;28;20095;-78
2023/09/03 12:29:38;;;;;;;1.08;1.05;;;23.90;68.80;;;;;;5056387;28;20021;-78
2023/09/03 12:32:05;;;;;;;1.27;1.17;;;23.90;68.90;;;;;;5055366;28;20051;-78
2023/09/03 12:34:33;;;;;;;1.85;1.50;;;24.00;68.80;;;;;;5055397;28;20127;-78
2023/09/03 12:36:59;;;;;;;1.50;1.23;;;24.00;68.80;;;;;;5055821;28;20093;-79
2023/09/03 12:39:33;;;;;;;1.35;1.20;;;24.00;68.70;;;;;;5038382;28;20025;-79
2023/09/03 12:42:00;;;;;;;1.30;1.20;;;24.00;68.60;;;;;;5054293;28;20072;-78
2023/09/03 12:44:29;;;;;;;1.35;1.10;;;24.00;68.50;;;;;;5021843;28;20091;-79
2023/09/03 12:46:58;;;;;;;1.33;1.20;;;24.10;68.50;;;;;;5038733;28;20044;-79
2023/09/03 12:49:28;;;;;;;1.30;1.20;;;24.10;68.40;;;;;;5038186;28;20033;-78
2023/09/03 12:51:55;;;;;;;1.42;1.25;;;24.10;68.30;;;;;;5056249;28;20028;-79